Time;durP1;ratioP1;P1;durP2;ratioP2;P2;SDS_P1;SDS_P2;PMS_P1;PMS_P2;Temp;Humidity;BMP_temperature;BMP_pressure;BME280_temperature;BME280_humidity;BME280_pressure;Samples;Min_cycle;Max_cycle;Signal;HPM_P1;HPM_P2
2023/08/20 00:00:14;;;;;;;6.00;5.50;;;23.90;73.20;;;;;;5028472;28;20315;-64
2023/08/20 00:02:42;;;;;;;6.45;5.22;;;23.80;73.20;;;;;;5026791;28;20113;-64
2023/08/20 00:05:09;;;;;;;5.30;4.78;;;23.80;73.50;;;;;;5030164;28;20037;-64
2023/08/20 00:07:35;;;;;;;5.80;5.20;;;23.70;73.20;;;;;;5028941;28;20637;-65
2023/08/20 00:10:04;;;;;;;5.32;4.70;;;23.60;73.30;;;;;;5028111;28;20033;-64
2023/08/20 00:12:29;;;;;;;5.05;4.55;;;23.60;73.50;;;;;;5028026;28;20687;-64
2023/08/20 00:15:06;;;;;;;6.30;5.47;;;23.60;73.60;;;;;;5026735;28;20171;-65
2023/08/20 00:17:34;;;;;;;8.60;5.10;;;23.50;73.90;;;;;;5027690;28;20653;-64
2023/08/20 00:20:00;;;;;;;5.40;4.90;;;23.50;73.70;;;;;;5037350;28;20024;-64
2023/08/20 00:22:27;;;;;;;6.30;5.15;;;23.50;73.90;;;;;;5029769;28;20037;-64
2023/08/20 00:24:54;;;;;;;6.75;4.93;;;23.40;73.90;;;;;;5014670;28;20139;-64
2023/08/20 00:27:20;;;;;;;6.15;5.40;;;23.40;74.20;;;;;;5020394;28;20095;-66
2023/08/20 00:29:45;;;;;;;5.45;4.97;;;23.40;74.40;;;;;;5016730;28;20030;-63
2023/08/20 00:32:11;;;;;;;7.25;5.25;;;23.40;74.60;;;;;;5016504;28;20136;-66
2023/08/20 00:34:36;;;;;;;7.22;5.53;;;23.40;74.80;;;;;;5016607;28;20123;-64
2023/08/20 00:37:03;;;;;;;7.38;5.40;;;23.30;74.90;;;;;;5013319;28;20061;-64
2023/08/20 00:39:29;;;;;;;6.15;5.05;;;23.30;74.90;;;;;;5020108;28;20569;-63
2023/08/20 00:41:55;;;;;;;5.30;4.90;;;23.20;75.10;;;;;;5029823;28;20037;-64
2023/08/20 00:44:21;;;;;;;6.78;4.95;;;23.20;75.30;;;;;;5028512;28;20029;-64
2023/08/20 00:46:46;;;;;;;5.80;5.22;;;23.20;75.40;;;;;;5026753;28;20496;-64
2023/08/20 00:49:12;;;;;;;5.95;5.10;;;23.10;75.60;;;;;;5027366;28;20031;-64
2023/08/20 00:51:38;;;;;;;6.70;5.60;;;23.10;75.70;;;;;;5028207;28;20124;-64
2023/08/20 00:54:05;;;;;;;6.05;5.43;;;23.00;75.90;;;;;;5025583;28;20350;-64
2023/08/20 00:56:30;;;;;;;6.40;5.72;;;23.00;76.00;;;;;;5032840;28;20021;-64
2023/08/20 00:58:56;;;;;;;5.70;5.20;;;23.00;75.90;;;;;;5028446;28;20577;-64
2023/08/20 01:01:22;;;;;;;9.30;5.53;;;23.00;75.90;;;;;;5025950;28;20033;-63
2023/08/20 01:03:48;;;;;;;6.70;5.35;;;23.00;75.80;;;;;;5026498;28;20083;-64
2023/08/20 01:06:35;;;;;;;6.07;5.32;;;22.90;75.80;;;;;;5025732;28;20032;-64
2023/08/20 01:09:32;;;;;;;6.05;5.07;;;22.90;76.60;;;;;;5026798;28;20134;-63
2023/08/20 01:12:02;;;;;;;5.65;5.15;;;22.90;76.60;;;;;;5028122;28;20038;-64
2023/08/20 01:14:27;;;;;;;8.50;5.43;;;22.80;76.00;;;;;;5028392;28;20045;-64
2023/08/20 01:16:53;;;;;;;6.30;5.32;;;22.70;75.90;;;;;;5024096;28;20378;-64
2023/08/20 01:19:21;;;;;;;6.53;5.30;;;22.70;76.00;;;;;;5024099;28;20063;-64
2023/08/20 01:22:04;;;;;;;6.43;5.53;;;22.60;76.20;;;;;;5028790;28;20524;-63
2023/08/20 01:24:51;;;;;;;6.03;5.35;;;22.60;76.30;;;;;;5014393;28;20029;-65
2023/08/20 01:27:19;;;;;;;10.10;5.30;;;22.50;77.20;;;;;;5025029;28;20037;-64
2023/08/20 01:29:45;;;;;;;6.72;5.25;;;22.40;76.80;;;;;;5019545;28;20045;-63
2023/08/20 01:32:12;;;;;;;6.45;5.57;;;22.40;77.20;;;;;;5010333;28;20390;-63
2023/08/20 01:34:38;;;;;;;6.18;5.15;;;22.30;77.30;;;;;;5021454;28;20803;-64
2023/08/20 01:37:03;;;;;;;5.72;5.15;;;22.30;77.50;;;;;;5015508;28;20067;-64
2023/08/20 01:39:29;;;;;;;6.13;5.43;;;22.30;77.70;;;;;;5014531;28;20046;-63
2023/08/20 01:41:55;;;;;;;5.43;4.93;;;22.30;77.80;;;;;;5018908;28;20064;-64
2023/08/20 01:44:20;;;;;;;8.00;5.28;;;22.30;77.60;;;;;;5021848;28;20033;-63
2023/08/20 01:46:46;;;;;;;5.88;4.80;;;22.40;77.50;;;;;;5012096;28;20041;-64
2023/08/20 01:49:11;;;;;;;6.03;5.00;;;22.40;77.70;;;;;;5012520;28;21889;-64
2023/08/20 01:51:37;;;;;;;6.55;5.65;;;22.40;77.90;;;;;;5018407;28;20037;-65
2023/08/20 01:54:03;;;;;;;5.93;5.35;;;22.40;77.90;;;;;;5015192;28;21673;-64
2023/08/20 01:56:28;;;;;;;8.02;5.43;;;22.40;77.90;;;;;;5024719;28;20107;-64
2023/08/20 01:58:54;;;;;;;6.28;5.68;;;22.40;78.00;;;;;;5025864;28;20034;-64
2023/08/20 02:01:19;;;;;;;6.20;5.57;;;22.40;78.00;;;;;;5031152;28;20039;-63
2023/08/20 02:03:45;;;;;;;6.53;5.40;;;22.30;77.90;;;;;;5026774;28;20064;-65
2023/08/20 02:06:11;;;;;;;5.78;5.25;;;22.30;78.00;;;;;;5026927;28;20038;-64
2023/08/20 02:08:36;;;;;;;8.00;6.03;;;22.30;78.20;;;;;;5025000;28;20063;-64
2023/08/20 02:11:03;;;;;;;6.30;5.70;;;22.20;78.30;;;;;;5024584;28;20045;-64
2023/08/20 02:13:30;;;;;;;6.88;5.35;;;22.20;78.60;;;;;;5024471;28;20137;-63
2023/08/20 02:15:59;;;;;;;6.30;5.40;;;22.20;78.50;;;;;;5029988;28;20036;-64
2023/08/20 02:18:25;;;;;;;6.10;5.20;;;22.20;78.90;;;;;;5024547;28;20040;-63
2023/08/20 02:20:50;;;;;;;6.55;5.60;;;22.20;78.70;;;;;;5024115;28;20025;-63
2023/08/20 02:23:16;;;;;;;6.60;6.00;;;22.10;78.60;;;;;;5024518;28;20052;-63
2023/08/20 02:25:44;;;;;;;5.88;5.38;;;22.10;78.70;;;;;;5024931;28;20527;-64
2023/08/20 02:28:09;;;;;;;6.43;5.60;;;22.10;78.80;;;;;;5016501;28;20046;-63
2023/08/20 02:30:44;;;;;;;6.00;5.40;;;22.00;78.90;;;;;;5020003;28;20408;-63
2023/08/20 02:33:10;;;;;;;6.72;5.50;;;22.00;79.60;;;;;;5018884;28;20053;-64
2023/08/20 02:35:39;;;;;;;6.65;5.63;;;22.00;79.30;;;;;;5023422;28;20030;-63
2023/08/20 02:38:05;;;;;;;7.60;5.78;;;21.90;79.60;;;;;;5016457;28;20094;-64
2023/08/20 02:40:31;;;;;;;8.40;5.55;;;21.90;79.60;;;;;;5019117;28;20119;-65
2023/08/20 02:42:57;;;;;;;8.40;5.43;;;21.90;79.70;;;;;;5022770;28;20048;-64
2023/08/20 02:45:22;;;;;;;5.72;5.15;;;21.90;79.70;;;;;;5022914;28;20234;-63
2023/08/20 02:47:49;;;;;;;6.28;5.47;;;21.90;79.80;;;;;;5016855;28;20024;-64
2023/08/20 02:50:14;;;;;;;6.75;5.55;;;21.90;80.00;;;;;;5015871;28;20459;-64
2023/08/20 02:52:42;;;;;;;5.82;5.15;;;21.90;80.10;;;;;;5018501;28;20029;-63
2023/08/20 02:55:08;;;;;;;7.43;5.43;;;21.90;80.00;;;;;;5017533;28;20631;-64
2023/08/20 02:57:33;;;;;;;6.72;5.55;;;21.90;80.70;;;;;;5015551;28;20461;-63
2023/08/20 02:59:59;;;;;;;6.82;5.75;;;21.90;79.80;;;;;;5020597;28;20041;-66
2023/08/20 03:02:24;;;;;;;6.55;5.25;;;21.90;79.80;;;;;;5029478;28;20032;-64
2023/08/20 03:04:50;;;;;;;5.50;4.97;;;21.90;80.50;;;;;;5025433;28;20111;-64
2023/08/20 03:07:16;;;;;;;7.43;6.03;;;21.80;79.60;;;;;;5028308;28;20034;-64
2023/08/20 03:09:41;;;;;;;10.63;5.90;;;21.80;79.60;;;;;;5031576;28;20574;-63
2023/08/20 03:12:07;;;;;;;5.85;5.28;;;21.70;79.60;;;;;;5026635;28;20042;-64
2023/08/20 03:14:33;;;;;;;7.28;5.97;;;21.70;79.80;;;;;;5037945;28;20489;-64
2023/08/20 03:16:58;;;;;;;6.63;5.70;;;21.70;79.90;;;;;;5041292;28;20032;-64
2023/08/20 03:19:24;;;;;;;8.27;6.13;;;21.70;80.30;;;;;;5037294;28;20118;-64
2023/08/20 03:21:49;;;;;;;6.50;5.90;;;21.60;80.30;;;;;;5037872;28;20064;-63
2023/08/20 03:24:15;;;;;;;6.18;5.43;;;21.60;80.40;;;;;;5034203;28;20041;-64
2023/08/20 03:26:41;;;;;;;6.50;5.60;;;21.60;80.50;;;;;;5029098;28;20021;-64
2023/08/20 03:29:06;;;;;;;6.40;5.68;;;21.60;80.50;;;;;;5032468;28;20513;-63
2023/08/20 03:31:32;;;;;;;6.30;5.70;;;21.60;80.60;;;;;;5031791;28;20516;-64
2023/08/20 03:33:57;;;;;;;6.05;5.55;;;21.60;80.70;;;;;;5032268;28;20112;-64
2023/08/20 03:36:23;;;;;;;5.97;5.15;;;21.60;80.60;;;;;;5030720;28;20037;-63
2023/08/20 03:38:48;;;;;;;5.80;5.40;;;21.60;80.60;;;;;;5035477;28;20116;-64
2023/08/20 03:41:14;;;;;;;7.10;5.60;;;21.60;80.70;;;;;;5033979;28;20209;-63
2023/08/20 03:43:40;;;;;;;6.38;5.78;;;21.60;80.80;;;;;;5032292;28;21733;-64
2023/08/20 03:46:05;;;;;;;7.07;5.45;;;21.60;80.70;;;;;;5032524;28;20516;-63
2023/08/20 03:48:31;;;;;;;6.63;5.60;;;21.60;80.60;;;;;;5031739;28;20444;-64
2023/08/20 03:50:56;;;;;;;7.03;6.30;;;21.60;80.60;;;;;;5026732;28;20634;-64
2023/08/20 03:53:22;;;;;;;6.80;5.65;;;21.60;80.70;;;;;;5024598;28;20049;-64
2023/08/20 03:55:49;;;;;;;7.63;5.93;;;21.70;80.90;;;;;;5029794;28;20033;-64
2023/08/20 03:58:14;;;;;;;7.70;5.70;;;21.60;80.90;;;;;;5031168;28;20028;-64
2023/08/20 04:00:40;;;;;;;7.05;5.82;;;21.60;81.00;;;;;;5028461;28;20052;-65
2023/08/20 04:03:05;;;;;;;6.57;5.95;;;21.60;80.80;;;;;;5033442;28;20037;-64
2023/08/20 04:05:36;;;;;;;7.55;6.22;;;21.50;81.00;;;;;;5028680;28;20042;-64
2023/08/20 04:08:03;;;;;;;6.80;6.20;;;21.60;81.80;;;;;;5029813;28;20037;-64
2023/08/20 04:10:28;;;;;;;7.40;6.57;;;21.50;81.50;;;;;;5029221;28;20036;-64
2023/08/20 04:12:54;;;;;;;7.55;6.85;;;21.40;81.50;;;;;;5028651;28;20041;-64
2023/08/20 04:15:19;;;;;;;8.68;6.45;;;21.50;81.80;;;;;;5030700;28;20509;-64
2023/08/20 04:17:45;;;;;;;7.15;5.93;;;21.40;81.80;;;;;;5027810;28;20449;-64
2023/08/20 04:20:11;;;;;;;6.85;6.07;;;21.40;81.70;;;;;;5030211;28;20029;-64
2023/08/20 04:22:37;;;;;;;6.57;5.97;;;21.40;81.70;;;;;;5029267;28;20029;-63
2023/08/20 04:25:03;;;;;;;9.10;6.30;;;21.40;81.80;;;;;;5031412;28;20410;-63
2023/08/20 04:27:28;;;;;;;6.65;6.05;;;21.40;82.60;;;;;;5032224;28;20033;-64
2023/08/20 04:29:56;;;;;;;7.03;6.32;;;21.40;81.80;;;;;;5031733;28;20378;-64
2023/08/20 04:32:21;;;;;;;7.28;6.32;;;21.30;81.80;;;;;;5027806;28;20037;-64
2023/08/20 04:34:49;;;;;;;6.72;6.07;;;21.30;81.90;;;;;;5032846;28;20036;-63
2023/08/20 04:37:15;;;;;;;8.20;6.38;;;21.30;81.90;;;;;;5033012;28;20025;-64
2023/08/20 04:39:40;;;;;;;6.75;6.13;;;21.30;81.90;;;;;;5029529;28;20382;-63
2023/08/20 04:42:06;;;;;;;6.28;5.68;;;21.30;82.00;;;;;;5029702;28;20026;-64
2023/08/20 04:44:31;;;;;;;6.43;5.80;;;21.20;82.00;;;;;;5025483;28;20048;-64
2023/08/20 04:46:57;;;;;;;8.45;6.68;;;21.30;82.20;;;;;;5030080;28;20090;-63
2023/08/20 04:49:25;;;;;;;6.75;6.20;;;21.40;82.30;;;;;;5027177;28;20045;-63
2023/08/20 04:51:51;;;;;;;8.70;6.20;;;21.30;82.30;;;;;;5031448;28;20033;-64
2023/08/20 04:54:17;;;;;;;9.02;6.18;;;21.30;82.40;;;;;;5031699;28;20515;-63
2023/08/20 04:56:42;;;;;;;9.30;6.47;;;21.30;82.60;;;;;;5032696;28;20037;-64
2023/08/20 04:59:08;;;;;;;9.27;6.82;;;21.30;82.70;;;;;;5033651;28;20039;-64
2023/08/20 05:01:33;;;;;;;8.40;7.22;;;21.30;82.70;;;;;;5031539;28;20045;-63
2023/08/20 05:03:59;;;;;;;7.60;6.25;;;21.40;82.70;;;;;;5033047;28;20048;-64
2023/08/20 05:06:25;;;;;;;8.93;6.53;;;21.30;82.70;;;;;;5028838;28;20091;-65
2023/08/20 05:08:50;;;;;;;10.18;7.40;;;21.30;82.70;;;;;;5031007;28;20128;-63
2023/08/20 05:11:16;;;;;;;7.57;6.72;;;21.30;82.80;;;;;;5024719;28;20519;-66
2023/08/20 05:13:41;;;;;;;7.57;6.78;;;21.30;83.00;;;;;;5034129;28;20085;-63
2023/08/20 05:16:07;;;;;;;7.45;6.72;;;21.30;83.30;;;;;;5034470;28;20123;-63
2023/08/20 05:18:32;;;;;;;7.10;6.40;;;21.30;83.20;;;;;;5032401;28;20044;-63
2023/08/20 05:20:58;;;;;;;8.85;6.60;;;21.30;83.20;;;;;;5036760;28;20036;-63
2023/08/20 05:23:23;;;;;;;8.35;6.90;;;21.30;83.40;;;;;;5029851;28;20552;-64
2023/08/20 05:25:49;;;;;;;7.65;6.53;;;21.40;83.60;;;;;;5031830;28;20434;-63
2023/08/20 05:28:14;;;;;;;8.90;6.85;;;21.40;83.60;;;;;;5027923;28;20041;-64
2023/08/20 05:30:40;;;;;;;8.07;7.18;;;21.40;83.70;;;;;;5024945;28;20539;-64
2023/08/20 05:33:06;;;;;;;8.52;7.20;;;21.50;84.00;;;;;;5025850;28;20095;-64
2023/08/20 05:35:31;;;;;;;9.02;7.80;;;21.50;83.80;;;;;;5031236;28;20076;-64
2023/08/20 05:37:57;;;;;;;7.55;6.70;;;21.60;83.80;;;;;;5033460;28;20034;-63
2023/08/20 05:40:22;;;;;;;8.10;7.30;;;21.70;83.80;;;;;;5025300;28;20042;-64
2023/08/20 05:42:48;;;;;;;9.20;7.60;;;21.70;84.00;;;;;;5025256;28;20053;-63
2023/08/20 05:45:13;;;;;;;8.95;7.22;;;21.70;84.00;;;;;;5026133;28;20042;-64
2023/08/20 05:47:39;;;;;;;7.97;7.18;;;21.80;84.20;;;;;;5028550;28;20030;-64
2023/08/20 05:50:05;;;;;;;8.43;7.63;;;21.80;84.30;;;;;;5028569;28;20044;-63
2023/08/20 05:52:31;;;;;;;9.70;8.15;;;21.80;84.60;;;;;;5027428;28;20037;-63
2023/08/20 05:54:56;;;;;;;8.88;7.97;;;21.90;84.70;;;;;;5026970;28;20037;-63
2023/08/20 05:57:22;;;;;;;9.50;8.60;;;21.90;85.70;;;;;;5031877;28;20039;-63
2023/08/20 05:59:47;;;;;;;8.15;7.30;;;22.00;85.10;;;;;;5028210;28;20040;-63
2023/08/20 06:02:19;;;;;;;12.05;8.32;;;22.00;85.50;;;;;;5029421;28;20124;-64
2023/08/20 06:04:45;;;;;;;10.73;8.45;;;22.10;86.00;;;;;;5030337;28;20076;-64
2023/08/20 06:07:10;;;;;;;9.85;8.30;;;22.10;85.50;;;;;;5033554;28;20037;-64
2023/08/20 06:09:36;;;;;;;9.18;8.18;;;22.10;85.60;;;;;;5029726;28;20033;-63
2023/08/20 06:12:01;;;;;;;8.82;7.68;;;22.20;85.70;;;;;;5025941;28;20038;-64
2023/08/20 06:14:27;;;;;;;8.50;7.60;;;22.20;85.90;;;;;;5029594;28;20033;-63
2023/08/20 06:16:53;;;;;;;9.63;8.63;;;22.30;86.00;;;;;;5027222;28;20043;-64
2023/08/20 06:19:18;;;;;;;9.45;8.45;;;22.40;86.20;;;;;;5032586;28;20044;-64
2023/08/20 06:21:44;;;;;;;10.23;8.23;;;22.50;86.40;;;;;;5026273;28;20060;-64
2023/08/20 06:24:09;;;;;;;8.27;7.50;;;22.50;87.10;;;;;;5015912;28;20045;-63
2023/08/20 06:26:35;;;;;;;12.35;8.48;;;22.60;86.20;;;;;;5020613;28;20174;-63
2023/08/20 06:29:00;;;;;;;10.98;8.43;;;22.70;86.40;;;;;;5020290;28;20037;-64
2023/08/20 06:31:26;;;;;;;10.60;8.02;;;22.80;86.70;;;;;;5019511;28;20491;-63
2023/08/20 06:33:52;;;;;;;8.25;7.53;;;22.90;86.60;;;;;;5025325;28;20231;-64
2023/08/20 06:36:17;;;;;;;8.68;7.78;;;23.00;86.50;;;;;;5023038;28;20041;-64
2023/08/20 06:38:43;;;;;;;11.25;7.90;;;23.00;86.20;;;;;;5022696;28;20049;-64
2023/08/20 06:41:08;;;;;;;9.25;8.43;;;23.20;86.40;;;;;;5020760;28;20036;-63
2023/08/20 06:43:34;;;;;;;9.52;7.95;;;23.20;86.20;;;;;;5020577;28;20645;-63
2023/08/20 06:45:59;;;;;;;11.00;8.40;;;23.30;85.90;;;;;;5025335;28;20132;-63
2023/08/20 06:48:26;;;;;;;8.98;8.07;;;23.40;85.70;;;;;;5025338;28;20061;-62
2023/08/20 06:50:51;;;;;;;10.13;8.23;;;23.50;85.40;;;;;;5024262;28;20041;-64
2023/08/20 06:53:18;;;;;;;9.00;8.10;;;23.60;85.40;;;;;;5022552;28;20467;-63
2023/08/20 06:55:44;;;;;;;10.20;9.10;;;23.60;85.30;;;;;;5022258;28;20025;-64
2023/08/20 06:58:09;;;;;;;9.10;8.20;;;23.70;85.40;;;;;;5025350;28;20065;-63
2023/08/20 07:00:35;;;;;;;11.00;8.25;;;23.80;85.30;;;;;;5017905;28;20029;-63
2023/08/20 07:03:00;;;;;;;8.95;8.15;;;23.90;85.00;;;;;;5020610;28;20072;-63
2023/08/20 07:05:26;;;;;;;8.55;7.68;;;24.00;84.90;;;;;;5025840;28;20048;-64
2023/08/20 07:07:52;;;;;;;12.30;8.15;;;24.00;84.60;;;;;;5031386;28;20034;-64
2023/08/20 07:10:17;;;;;;;8.43;7.35;;;24.10;84.50;;;;;;5016005;28;20532;-64
2023/08/20 07:12:43;;;;;;;8.43;7.55;;;24.20;84.50;;;;;;5024473;28;20072;-64
2023/08/20 07:15:09;;;;;;;8.23;7.38;;;24.30;84.40;;;;;;5021917;28;20041;-63
2023/08/20 07:17:34;;;;;;;9.43;7.80;;;24.40;84.10;;;;;;5026597;28;20048;-63
2023/08/20 07:20:00;;;;;;;8.30;7.43;;;24.40;83.80;;;;;;5026743;28;20299;-63
2023/08/20 07:22:25;;;;;;;8.75;7.70;;;24.50;83.70;;;;;;5024858;28;20521;-64
2023/08/20 07:24:51;;;;;;;8.85;7.43;;;24.60;83.40;;;;;;5028809;28;20029;-63
2023/08/20 07:27:17;;;;;;;9.50;7.30;;;24.70;83.30;;;;;;5027118;28;20481;-63
2023/08/20 07:29:42;;;;;;;8.75;7.40;;;24.70;82.60;;;;;;5033055;28;20033;-63
2023/08/20 07:32:08;;;;;;;7.82;7.13;;;24.80;82.50;;;;;;5021320;28;20475;-63
2023/08/20 07:34:34;;;;;;;16.50;7.72;;;24.90;82.40;;;;;;5023920;28;20049;-64
2023/08/20 07:37:00;;;;;;;8.48;6.95;;;24.90;81.90;;;;;;5025736;28;20025;-63
2023/08/20 07:39:26;;;;;;;8.07;7.25;;;25.00;81.70;;;;;;5031224;28;20066;-63
2023/08/20 07:41:52;;;;;;;7.78;6.53;;;25.10;81.70;;;;;;5021855;28;20037;-63
2023/08/20 07:44:17;;;;;;;8.75;7.50;;;25.20;81.60;;;;;;5028003;28;20385;-65
2023/08/20 07:46:43;;;;;;;7.80;6.97;;;25.20;81.10;;;;;;5022133;28;20467;-65
2023/08/20 07:49:08;;;;;;;7.85;7.05;;;25.30;81.10;;;;;;5028221;28;20036;-64
2023/08/20 07:51:34;;;;;;;7.60;6.80;;;25.40;80.90;;;;;;5029138;28;20055;-64
2023/08/20 07:54:00;;;;;;;8.60;6.78;;;25.50;80.50;;;;;;5031562;28;20075;-64
2023/08/20 07:56:26;;;;;;;7.05;6.30;;;25.50;80.10;;;;;;5033911;28;20036;-65
2023/08/20 07:58:52;;;;;;;9.25;6.85;;;25.60;80.00;;;;;;5034444;28;20558;-64
2023/08/20 08:01:17;;;;;;;12.55;6.63;;;25.70;79.60;;;;;;5031132;28;20045;-63
2023/08/20 08:03:43;;;;;;;7.07;6.32;;;25.70;79.10;;;;;;5032738;28;20515;-64
2023/08/20 08:06:09;;;;;;;10.18;6.50;;;25.80;78.70;;;;;;5030792;28;20056;-64
2023/08/20 08:08:34;;;;;;;7.63;5.85;;;25.90;78.70;;;;;;5032322;28;20568;-63
2023/08/20 08:11:00;;;;;;;6.65;6.00;;;26.00;78.10;;;;;;5029176;28;20048;-63
2023/08/20 08:13:26;;;;;;;6.53;5.38;;;26.10;78.10;;;;;;5031494;28;20060;-63
2023/08/20 08:15:52;;;;;;;9.63;6.07;;;26.20;77.40;;;;;;5038447;28;20094;-64
2023/08/20 08:18:19;;;;;;;7.28;5.15;;;26.30;76.90;;;;;;5028711;28;20060;-64
2023/08/20 08:20:44;;;;;;;6.53;5.88;;;26.30;76.60;;;;;;5030705;28;20404;-63
2023/08/20 08:23:10;;;;;;;7.30;5.22;;;26.40;77.00;;;;;;5038332;28;20132;-64
2023/08/20 08:25:37;;;;;;;6.50;5.78;;;26.40;76.10;;;;;;5026133;28;20690;-64
2023/08/20 08:28:03;;;;;;;9.43;6.07;;;26.50;76.10;;;;;;5034175;28;20026;-64
2023/08/20 08:30:29;;;;;;;8.07;6.20;;;26.60;76.00;;;;;;5033916;28;20057;-63
2023/08/20 08:32:55;;;;;;;7.53;5.75;;;26.70;77.20;;;;;;5037217;28;20041;-64
2023/08/20 08:35:20;;;;;;;7.30;6.70;;;26.70;76.00;;;;;;5037109;28;20037;-64
2023/08/20 08:37:46;;;;;;;9.40;6.95;;;26.80;74.70;;;;;;5034851;28;20091;-63
2023/08/20 08:40:12;;;;;;;7.00;6.40;;;26.90;75.00;;;;;;5036930;28;20069;-64
2023/08/20 08:42:40;;;;;;;8.32;6.25;;;27.00;75.00;;;;;;5034010;28;20033;-63
2023/08/20 08:45:06;;;;;;;7.55;6.80;;;27.00;75.20;;;;;;5036437;28;20033;-63
2023/08/20 08:47:33;;;;;;;9.05;6.28;;;27.10;74.90;;;;;;5035509;28;20404;-64
2023/08/20 08:49:59;;;;;;;7.38;6.70;;;27.10;74.70;;;;;;5034895;28;20026;-64
2023/08/20 08:52:25;;;;;;;7.60;6.70;;;27.20;74.50;;;;;;5037716;28;20271;-65
2023/08/20 08:54:52;;;;;;;9.35;6.25;;;27.20;74.10;;;;;;5036278;28;20037;-63
2023/08/20 08:57:17;;;;;;;7.47;6.35;;;27.30;74.60;;;;;;5036174;28;20264;-64
2023/08/20 08:59:43;;;;;;;8.00;6.18;;;27.40;74.30;;;;;;5035551;28;20512;-64
2023/08/20 09:02:11;;;;;;;8.55;6.18;;;27.50;74.00;;;;;;5035826;28;20044;-65
2023/08/20 09:04:40;;;;;;;9.73;6.32;;;27.60;74.00;;;;;;5034657;28;20125;-63
2023/08/20 09:07:14;;;;;;;7.00;6.32;;;27.70;73.90;;;;;;5036227;28;20038;-64
2023/08/20 09:09:45;;;;;;;6.80;6.00;;;27.70;73.10;;;;;;5035643;28;20037;-64
2023/08/20 09:12:18;;;;;;;6.65;6.13;;;27.80;73.00;;;;;;5029984;28;20034;-64
2023/08/20 09:14:49;;;;;;;6.82;6.13;;;27.90;71.80;;;;;;5036433;28;20488;-64
2023/08/20 09:17:15;;;;;;;6.35;5.70;;;27.90;72.50;;;;;;5034946;28;20044;-63
2023/08/20 09:19:46;;;;;;;5.78;5.20;;;28.00;72.00;;;;;;5031723;28;20253;-64
2023/08/20 09:22:12;;;;;;;5.78;5.28;;;28.00;71.50;;;;;;5031004;28;20044;-66
2023/08/20 09:24:46;;;;;;;9.35;5.70;;;28.10;71.50;;;;;;5032740;28;20048;-64
2023/08/20 09:27:14;;;;;;;7.13;5.80;;;28.20;70.00;;;;;;5034328;28;20044;-64
2023/08/20 09:29:46;;;;;;;6.55;5.88;;;28.30;70.80;;;;;;5036950;28;20041;-63
2023/08/20 09:32:17;;;;;;;7.53;5.63;;;28.30;69.10;;;;;;5034848;28;20075;-65
2023/08/20 09:34:43;;;;;;;5.95;5.35;;;28.40;69.50;;;;;;5033965;28;20049;-64
2023/08/20 09:37:16;;;;;;;8.55;5.70;;;28.40;70.60;;;;;;5034894;28;20068;-64
2023/08/20 09:39:42;;;;;;;6.72;5.20;;;28.50;68.70;;;;;;5033740;28;20084;-64
2023/08/20 09:42:09;;;;;;;5.57;4.97;;;28.60;68.90;;;;;;5035065;28;20420;-62
2023/08/20 09:44:37;;;;;;;7.88;4.88;;;28.60;68.20;;;;;;5036794;28;20065;-64
2023/08/20 09:47:06;;;;;;;5.88;5.22;;;28.70;68.10;;;;;;5035804;28;20159;-64
2023/08/20 09:49:37;;;;;;;5.75;4.78;;;28.80;67.80;;;;;;5035753;28;20038;-64
2023/08/20 09:52:05;;;;;;;4.85;4.45;;;28.90;66.50;;;;;;5035738;28;20090;-63
2023/08/20 09:54:51;;;;;;;4.20;3.80;;;29.00;66.20;;;;;;5034665;28;20451;-64
2023/08/20 09:57:36;;;;;;;5.88;4.40;;;29.00;65.40;;;;;;5037293;28;20148;-64
2023/08/20 10:00:05;;;;;;;4.78;4.25;;;29.20;65.70;;;;;;5034996;28;20033;-62
2023/08/20 10:02:32;;;;;;;6.47;3.80;;;29.20;66.10;;;;;;5035297;28;20547;-64
2023/08/20 10:05:01;;;;;;;5.47;3.97;;;29.30;66.30;;;;;;5034780;28;20120;-64
2023/08/20 10:07:31;;;;;;;4.95;4.10;;;29.40;66.20;;;;;;5034126;28;20048;-63
2023/08/20 10:10:00;;;;;;;5.07;4.22;;;29.50;64.50;;;;;;5035379;28;20037;-64
2023/08/20 10:12:27;;;;;;;6.30;3.97;;;29.60;64.40;;;;;;5027353;28;20036;-64
2023/08/20 10:14:53;;;;;;;6.65;3.92;;;29.70;62.90;;;;;;5036504;28;20040;-64
2023/08/20 10:17:18;;;;;;;8.85;4.32;;;29.80;62.00;;;;;;5034996;28;20022;-65
2023/08/20 10:19:46;;;;;;;6.68;4.45;;;29.90;62.10;;;;;;5026273;28;20038;-64
2023/08/20 10:22:11;;;;;;;6.95;4.00;;;29.90;60.70;;;;;;5034865;28;20055;-66
2023/08/20 10:24:47;;;;;;;8.77;4.22;;;30.00;60.40;;;;;;5030580;28;20029;-65
2023/08/20 10:27:13;;;;;;;4.85;3.80;;;30.10;59.10;;;;;;5034511;28;20036;-64
2023/08/20 10:29:42;;;;;;;5.85;3.90;;;30.20;59.40;;;;;;5034645;28;20416;-65
2023/08/20 10:32:12;;;;;;;6.78;4.03;;;30.20;59.80;;;;;;5037353;28;20970;-64
2023/08/20 10:34:39;;;;;;;7.47;3.88;;;30.20;59.20;;;;;;5033939;28;20025;-63
2023/08/20 10:37:12;;;;;;;7.28;4.13;;;30.30;59.30;;;;;;5034288;28;20409;-63
2023/08/20 10:39:38;;;;;;;4.38;3.60;;;30.30;57.70;;;;;;5029549;28;20037;-65
2023/08/20 10:42:23;;;;;;;5.28;3.60;;;30.30;58.60;;;;;;5025714;28;20063;-63
2023/08/20 10:45:14;;;;;;;;;;;30.30;57.50;;;;;;5026007;28;20046;-63
2023/08/20 10:47:44;;;;;;;7.45;3.97;;;30.40;58.90;;;;;;5029034;28;19925;-64
2023/08/20 10:50:14;;;;;;;5.55;3.92;;;30.50;58.00;;;;;;5024543;28;20049;-64
2023/08/20 10:52:41;;;;;;;4.30;3.30;;;30.50;58.70;;;;;;5028747;28;20426;-64
2023/08/20 10:55:10;;;;;;;5.22;4.20;;;30.50;58.90;;;;;;5029419;28;20689;-64
2023/08/20 10:57:36;;;;;;;5.68;4.20;;;30.60;58.50;;;;;;5029821;28;20045;-64
2023/08/20 11:00:13;;;;;;;9.48;4.35;;;30.60;58.70;;;;;;5030918;28;20036;-63
2023/08/20 11:02:41;;;;;;;5.32;4.05;;;30.60;59.30;;;;;;5023881;28;20192;-64
2023/08/20 11:05:18;;;;;;;5.25;3.83;;;30.70;59.50;;;;;;5026912;28;20564;-65
2023/08/20 11:07:46;;;;;;;4.35;3.40;;;30.80;58.70;;;;;;5031804;28;20033;-64
2023/08/20 11:10:14;;;;;;;5.57;4.13;;;30.80;58.80;;;;;;5023387;28;20033;-64
2023/08/20 11:12:40;;;;;;;6.05;3.70;;;30.90;58.60;;;;;;5024403;28;20060;-64
2023/08/20 11:15:07;;;;;;;4.50;3.67;;;30.90;58.50;;;;;;5028706;28;20578;-64
2023/08/20 11:17:33;;;;;;;5.32;3.53;;;31.00;57.90;;;;;;5029027;28;20423;-67
2023/08/20 11:19:59;;;;;;;6.95;3.50;;;31.00;57.90;;;;;;5031142;28;20038;-64
2023/08/20 11:22:24;;;;;;;4.90;3.67;;;31.10;57.50;;;;;;5027836;28;20036;-65
2023/08/20 11:24:50;;;;;;;4.90;3.40;;;31.20;57.10;;;;;;5029470;28;20033;-64
2023/08/20 11:27:15;;;;;;;3.67;3.30;;;31.20;57.60;;;;;;5035707;28;20117;-64
2023/08/20 11:29:44;;;;;;;3.30;3.00;;;31.30;57.10;;;;;;5040116;28;20043;-64
2023/08/20 11:32:10;;;;;;;3.83;3.42;;;31.40;57.00;;;;;;5040367;28;20133;-65
2023/08/20 11:34:38;;;;;;;4.50;3.17;;;31.40;56.40;;;;;;5040364;28;20039;-64
2023/08/20 11:37:04;;;;;;;4.03;3.30;;;31.50;56.10;;;;;;5041460;28;20554;-64
2023/08/20 11:39:30;;;;;;;5.80;3.45;;;31.60;55.60;;;;;;5032278;28;20042;-65
2023/08/20 11:41:56;;;;;;;6.47;3.50;;;31.60;55.70;;;;;;5029235;28;20037;-65
2023/08/20 11:44:22;;;;;;;7.47;3.60;;;31.70;55.50;;;;;;5031856;28;20133;-64
2023/08/20 11:46:48;;;;;;;8.15;3.50;;;31.80;55.30;;;;;;5030213;28;20079;-66
2023/08/20 11:49:14;;;;;;;3.97;3.58;;;31.80;55.30;;;;;;5028493;28;20500;-64
2023/08/20 11:51:52;;;;;;;7.35;3.80;;;31.90;55.50;;;;;;5028315;28;20523;-64
2023/08/20 11:54:18;;;;;;;5.10;3.45;;;32.00;55.10;;;;;;5032115;28;20119;-64
2023/08/20 11:56:51;;;;;;;6.93;3.33;;;32.00;55.30;;;;;;5026573;28;20760;-65
2023/08/20 11:59:19;;;;;;;12.40;3.58;;;32.00;54.70;;;;;;5036283;28;20064;-64
2023/08/20 12:01:51;;;;;;;3.55;3.22;;;32.10;54.80;;;;;;5035586;28;20067;-64
2023/08/20 12:04:16;;;;;;;5.65;3.13;;;32.10;54.80;;;;;;5036949;28;20550;-64
2023/08/20 12:06:42;;;;;;;4.10;3.25;;;32.20;54.90;;;;;;5031966;28;20124;-64
2023/08/20 12:09:23;;;;;;;3.90;3.25;;;32.20;54.00;;;;;;5037054;28;20048;-65
2023/08/20 12:11:55;;;;;;;3.65;3.35;;;32.30;54.00;;;;;;5032548;28;20060;-66
2023/08/20 12:14:21;;;;;;;5.60;3.88;;;32.30;54.70;;;;;;5037461;28;20112;-64
2023/08/20 12:16:47;;;;;;;5.55;3.67;;;32.30;54.80;;;;;;5036328;28;20056;-66
2023/08/20 12:19:13;;;;;;;9.18;3.55;;;32.30;54.80;;;;;;5037122;28;20500;-64
2023/08/20 12:21:43;;;;;;;5.93;3.60;;;32.40;54.30;;;;;;5038551;28;20040;-65
2023/08/20 12:24:09;;;;;;;5.25;3.30;;;32.50;54.60;;;;;;5034090;28;20075;-64
2023/08/20 12:26:36;;;;;;;6.88;3.22;;;32.50;54.60;;;;;;5037540;28;20038;-65
2023/08/20 12:29:02;;;;;;;5.57;3.60;;;32.50;54.40;;;;;;5036882;28;20116;-64
2023/08/20 12:31:27;;;;;;;5.75;3.25;;;32.60;53.90;;;;;;5037909;28;20037;-64
2023/08/20 12:33:53;;;;;;;4.82;3.28;;;32.60;53.90;;;;;;5035301;28;20456;-64
2023/08/20 12:36:19;;;;;;;4.03;3.20;;;32.60;53.40;;;;;;5033603;28;20033;-64
2023/08/20 12:38:44;;;;;;;4.82;3.00;;;32.70;53.60;;;;;;5031548;28;20135;-62
2023/08/20 12:41:10;;;;;;;4.90;3.05;;;32.70;53.50;;;;;;5029139;28;20398;-65
2023/08/20 12:43:35;;;;;;;3.28;2.90;;;32.70;52.10;;;;;;5033439;28;20460;-64